HUAL Seoul — LADO6 — position and weather

sailwx.info

Track history (hours):
 
Tides and Currents Weather Stations Pressure Air Temp Water Temp Dewpoint Dewpoint Depression Visibility Wind Speed Wind Dir Waves Ship Positions

HUAL Seoul

Last reported at 2016-Aug-23 09:30 UTC. Time now 2016-Aug-30 01:17 UTC.
Position N 36°51' W 075°51'.

Type: Cargo ship. MMSI: 257496000.

Date/timePositionNaut miles runAvg speedWind from/ knotsBaromVisibWave heightAir tempDewpointWater temp
2016-Aug-23 09:30N 36°51' W 075°51'1212.4
2016-Aug-23 08:33N 36°60' W 076°01'6415.4
2016-Aug-23 04:24N 38°03' W 076°13'4217.7
2016-Aug-23 02:03N 38°44' W 076°26'917.1
2016-Aug-23 01:33N 38°52' W 076°24'1615.5
2016-Aug-23 00:33N 39°08' W 076°24'10 9.7
2016-Aug-22 23:29N 39°15' W 076°34'1 0.9
2016-Aug-22 22:33N 39°15' W 076°35'0 0.0
2016-Aug-22 21:30N 39°15' W 076°35'0 0.0
2016-Aug-22 20:30N 39°15' W 076°35'0 0.0
2016-Aug-22 19:21N 39°15' W 076°35'0 0.0
2016-Aug-22 18:30N 39°15' W 076°35'0 0.0
2016-Aug-22 17:30N 39°15' W 076°35'0 0.0
2016-Aug-22 16:30N 39°15' W 076°35'0 0.0
2016-Aug-22 15:31N 39°15' W 076°35'0 0.0
2016-Aug-22 14:31N 39°15' W 076°35'0 0.0
2016-Aug-22 13:34N 39°15' W 076°35'0 0.0
2016-Aug-22 12:32N 39°15' W 076°35'0 0.0
2016-Aug-22 11:32N 39°15' W 076°35'0 0.0
2016-Aug-22 10:33N 39°15' W 076°35'3 3.2
2016-Aug-22 09:34N 39°13' W 076°32'1010.3
2016-Aug-22 08:32N 39°09' W 076°19'1211.9
2016-Aug-22 07:34N 39°20' W 076°12'1313.0
2016-Aug-22 06:34N 39°28' W 075°59'8 8.4
2016-Aug-22 05:34N 39°32' W 075°49'8 8.3
2016-Aug-22 04:34N 39°33' W 075°39'7 6.9
2016-Aug-22 03:34N 39°39' W 075°33'4 4.2
2016-Aug-22 02:33N 39°42' W 075°31'0 0.0
2016-Aug-22 01:33N 39°42' W 075°31'0 0.0
2016-Aug-22 00:33N 39°42' W 075°31'0 0.0
2016-Aug-21 23:33N 39°42' W 075°31'0 0.0
2016-Aug-21 22:31N 39°42' W 075°31'0 0.0
2016-Aug-21 21:33N 39°42' W 075°31'0 0.0
2016-Aug-21 20:33N 39°42' W 075°31'0 0.0
2016-Aug-21 19:33N 39°42' W 075°31'0 0.0
2016-Aug-21 18:33N 39°42' W 075°31'0 0.0
2016-Aug-21 17:33N 39°42' W 075°31'0 0.0
2016-Aug-21 16:33N 39°42' W 075°31'0 0.1
2016-Aug-21 15:34N 39°43' W 075°31'6 6.3
2016-Aug-21 14:33N 39°37' W 075°35'1515.3
2016-Aug-21 13:33N 39°23' W 075°28'1716.8
2016-Aug-21 12:34N 39°09' W 075°15'1717.1
2016-Aug-21 11:33N 38°54' W 075°05'9 9.2
2016-Aug-21 10:33N 38°47' W 074°57'9 8.6
2016-Aug-21 09:31N 38°48' W 074°45'1312.8
2016-Aug-21 08:32N 38°49' W 074°29'1312.8
2016-Aug-21 07:33N 38°53' W 074°14'1212.4
2016-Aug-21 06:34N 39°02' W 074°03'1413.8
2016-Aug-21 05:33N 39°15' W 073°55'1312.6
2016-Aug-21 04:33N 39°27' W 073°54'1313.4
2016-Aug-21 03:33N 39°41' W 073°53'1312.8
2016-Aug-21 02:33N 39°54' W 073°51'1313.0
2016-Aug-21 01:32N 40°07' W 073°50'1312.8
2016-Aug-21 00:32N 40°20' W 073°49'1010.2
2016-Aug-20 23:33N 40°29' W 073°54'1312.8
2016-Aug-20 22:33N 40°39' W 074°04'3 3.4
2016-Aug-20 21:33N 40°41' W 074°08'1 1.0
2016-Aug-20 20:32N 40°42' W 074°09'0 0.0
2016-Aug-20 19:32N 40°42' W 074°09'0 0.0
2016-Aug-20 18:29N 40°42' W 074°09'0 0.0
2016-Aug-20 17:32N 40°42' W 074°09'0 0.0
2016-Aug-20 16:32N 40°42' W 074°09'0 0.0
2016-Aug-20 15:32N 40°42' W 074°09'0 0.0
2016-Aug-20 14:29N 40°42' W 074°09'0 0.0
2016-Aug-20 13:32N 40°42' W 074°09'0 0.0
2016-Aug-20 12:32N 40°42' W 074°09'0 0.0
2016-Aug-20 11:32N 40°42' W 074°09'0 0.0
2016-Aug-20 10:32N 40°42' W 074°09'0 0.0
2016-Aug-20 09:32N 40°42' W 074°09'0 0.0
2016-Aug-20 08:32N 40°42' W 074°09'0 0.0
2016-Aug-20 07:32N 40°42' W 074°09'0 0.0
2016-Aug-20 06:32N 40°42' W 074°09'0 0.0
2016-Aug-20 05:32N 40°42' W 074°09'0 0.0
2016-Aug-20 04:29N 40°42' W 074°09'0 0.0
2016-Aug-20 03:32N 40°42' W 074°09'1 0.6
2016-Aug-20 02:33N 40°41' W 074°08'1 0.8
2016-Aug-20 01:33N 40°42' W 074°09'0 0.0
2016-Aug-20 00:33N 40°42' W 074°09'0 0.0
2016-Aug-19 23:33N 40°42' W 074°09'0 0.0
2016-Aug-19 22:33N 40°42' W 074°09'0 0.0
2016-Aug-19 21:33N 40°42' W 074°09'2 1.8
2016-Aug-19 20:33N 40°40' W 074°08'5 5.0
2016-Aug-19 19:33N 40°37' W 074°03'10 9.9
2016-Aug-19 18:33N 40°29' W 073°55'8 8.2
2016-Aug-19 17:33N 40°23' W 073°47'1812.7
2016-Aug-19 16:09N 40°06' W 073°45'914.4
2016-Aug-19 15:33N 39°57' W 073°44'1514.5
2016-Aug-19 14:31N 39°42' W 073°42'1414.3
2016-Aug-19 13:33N 39°29' W 073°41'1010.3
2016-Aug-19 12:33N 39°19' W 073°44'1312.8
2016-Aug-19 11:33N 39°06' W 073°48'1515.1
2016-Aug-19 10:33N 38°51' W 073°51'59311.9
2016-Aug-17 08:33N 31°06' W 081°20'10 9.3
2016-Aug-17 07:30N 31°00' W 081°11'24612.9
2016-Aug-16 12:22N 27°06' W 079°43'1315.8
2016-Aug-16 11:33N 26°53' W 079°44'1615.8
2016-Aug-16 10:33N 26°37' W 079°45'1615.7
2016-Aug-16 09:33N 26°22' W 079°47'1515.4
2016-Aug-16 08:33N 26°06' W 079°48'1615.5
2016-Aug-16 07:33N 25°51' W 079°50'1615.6
2016-Aug-16 06:33N 25°36' W 079°54'  
Track history (hours):
 
Tides and Currents Weather Stations Pressure Air Temp Water Temp Dewpoint Dewpoint Depression Visibility Wind Speed Wind Dir Waves Ship Positions

HUAL Seoul

Last reported at 2016-Aug-23 09:30 UTC. Time now 2016-Aug-30 01:17 UTC.
Position N 36°51' W 075°51'.

Type: Cargo ship. MMSI: 257496000.

Date/timePositionNaut miles runAvg speedWind from/ knotsBaromVisibWave heightAir tempDewpointWater temp
2016-Aug-23 09:30N 36°51' W 075°51'1212.4
2016-Aug-23 08:33N 36°60' W 076°01'6415.4
2016-Aug-23 04:24N 38°03' W 076°13'4217.7
2016-Aug-23 02:03N 38°44' W 076°26'917.1
2016-Aug-23 01:33N 38°52' W 076°24'1615.5
2016-Aug-23 00:33N 39°08' W 076°24'10 9.7
2016-Aug-22 23:29N 39°15' W 076°34'1 0.9
2016-Aug-22 22:33N 39°15' W 076°35'0 0.0
2016-Aug-22 21:30N 39°15' W 076°35'0 0.0
2016-Aug-22 20:30N 39°15' W 076°35'0 0.0
2016-Aug-22 19:21N 39°15' W 076°35'0 0.0
2016-Aug-22 18:30N 39°15' W 076°35'0 0.0
2016-Aug-22 17:30N 39°15' W 076°35'0 0.0
2016-Aug-22 16:30N 39°15' W 076°35'0 0.0
2016-Aug-22 15:31N 39°15' W 076°35'0 0.0
2016-Aug-22 14:31N 39°15' W 076°35'0 0.0
2016-Aug-22 13:34N 39°15' W 076°35'0 0.0
2016-Aug-22 12:32N 39°15' W 076°35'0 0.0
2016-Aug-22 11:32N 39°15' W 076°35'0 0.0
2016-Aug-22 10:33N 39°15' W 076°35'3 3.2
2016-Aug-22 09:34N 39°13' W 076°32'1010.3
2016-Aug-22 08:32N 39°09' W 076°19'1211.9
2016-Aug-22 07:34N 39°20' W 076°12'1313.0
2016-Aug-22 06:34N 39°28' W 075°59'8 8.4
2016-Aug-22 05:34N 39°32' W 075°49'8 8.3
2016-Aug-22 04:34N 39°33' W 075°39'7 6.9
2016-Aug-22 03:34N 39°39' W 075°33'4 4.2
2016-Aug-22 02:33N 39°42' W 075°31'0 0.0
2016-Aug-22 01:33N 39°42' W 075°31'0 0.0
2016-Aug-22 00:33N 39°42' W 075°31'0 0.0
2016-Aug-21 23:33N 39°42' W 075°31'0 0.0
2016-Aug-21 22:31N 39°42' W 075°31'0 0.0
2016-Aug-21 21:33N 39°42' W 075°31'0 0.0
2016-Aug-21 20:33N 39°42' W 075°31'0 0.0
2016-Aug-21 19:33N 39°42' W 075°31'0 0.0
2016-Aug-21 18:33N 39°42' W 075°31'0 0.0
2016-Aug-21 17:33N 39°42' W 075°31'0 0.0
2016-Aug-21 16:33N 39°42' W 075°31'0 0.1
2016-Aug-21 15:34N 39°43' W 075°31'6 6.3
2016-Aug-21 14:33N 39°37' W 075°35'1515.3
2016-Aug-21 13:33N 39°23' W 075°28'1716.8
2016-Aug-21 12:34N 39°09' W 075°15'1717.1
2016-Aug-21 11:33N 38°54' W 075°05'9 9.2
2016-Aug-21 10:33N 38°47' W 074°57'9 8.6
2016-Aug-21 09:31N 38°48' W 074°45'1312.8
2016-Aug-21 08:32N 38°49' W 074°29'1312.8
2016-Aug-21 07:33N 38°53' W 074°14'1212.4
2016-Aug-21 06:34N 39°02' W 074°03'1413.8
2016-Aug-21 05:33N 39°15' W 073°55'1312.6
2016-Aug-21 04:33N 39°27' W 073°54'1313.4
2016-Aug-21 03:33N 39°41' W 073°53'1312.8
2016-Aug-21 02:33N 39°54' W 073°51'1313.0
2016-Aug-21 01:32N 40°07' W 073°50'1312.8
2016-Aug-21 00:32N 40°20' W 073°49'1010.2
2016-Aug-20 23:33N 40°29' W 073°54'1312.8
2016-Aug-20 22:33N 40°39' W 074°04'3 3.4
2016-Aug-20 21:33N 40°41' W 074°08'1 1.0
2016-Aug-20 20:32N 40°42' W 074°09'0 0.0
2016-Aug-20 19:32N 40°42' W 074°09'0 0.0
2016-Aug-20 18:29N 40°42' W 074°09'0 0.0
2016-Aug-20 17:32N 40°42' W 074°09'0 0.0
2016-Aug-20 16:32N 40°42' W 074°09'0 0.0
2016-Aug-20 15:32N 40°42' W 074°09'0 0.0
2016-Aug-20 14:29N 40°42' W 074°09'0 0.0
2016-Aug-20 13:32N 40°42' W 074°09'0 0.0
2016-Aug-20 12:32N 40°42' W 074°09'0 0.0
2016-Aug-20 11:32N 40°42' W 074°09'0 0.0
2016-Aug-20 10:32N 40°42' W 074°09'0 0.0
2016-Aug-20 09:32N 40°42' W 074°09'0 0.0
2016-Aug-20 08:32N 40°42' W 074°09'0 0.0
2016-Aug-20 07:32N 40°42' W 074°09'0 0.0
2016-Aug-20 06:32N 40°42' W 074°09'0 0.0
2016-Aug-20 05:32N 40°42' W 074°09'0 0.0
2016-Aug-20 04:29N 40°42' W 074°09'0 0.0
2016-Aug-20 03:32N 40°42' W 074°09'1 0.6
2016-Aug-20 02:33N 40°41' W 074°08'1 0.8
2016-Aug-20 01:33N 40°42' W 074°09'0 0.0
2016-Aug-20 00:33N 40°42' W 074°09'0 0.0
2016-Aug-19 23:33N 40°42' W 074°09'0 0.0
2016-Aug-19 22:33N 40°42' W 074°09'0 0.0
2016-Aug-19 21:33N 40°42' W 074°09'2 1.8
2016-Aug-19 20:33N 40°40' W 074°08'5 5.0
2016-Aug-19 19:33N 40°37' W 074°03'10 9.9
2016-Aug-19 18:33N 40°29' W 073°55'8 8.2
2016-Aug-19 17:33N 40°23' W 073°47'1812.7
2016-Aug-19 16:09N 40°06' W 073°45'914.4
2016-Aug-19 15:33N 39°57' W 073°44'1514.5
2016-Aug-19 14:31N 39°42' W 073°42'1414.3
2016-Aug-19 13:33N 39°29' W 073°41'1010.3
2016-Aug-19 12:33N 39°19' W 073°44'1312.8
2016-Aug-19 11:33N 39°06' W 073°48'1515.1
2016-Aug-19 10:33N 38°51' W 073°51'59311.9
2016-Aug-17 08:33N 31°06' W 081°20'10 9.3
2016-Aug-17 07:30N 31°00' W 081°11'24612.9
2016-Aug-16 12:22N 27°06' W 079°43'1315.8
2016-Aug-16 11:33N 26°53' W 079°44'1615.8
2016-Aug-16 10:33N 26°37' W 079°45'1615.7
2016-Aug-16 09:33N 26°22' W 079°47'1515.4
2016-Aug-16 08:33N 26°06' W 079°48'1615.5
2016-Aug-16 07:33N 25°51' W 079°50'1615.6
2016-Aug-16 06:33N 25°36' W 079°54'  

Dump ship's entire track history